createdAt,value
2018-06-07T00:00:36.446Z,0.00
2018-06-07T00:11:16.165Z,0.00
2018-06-07T00:12:16.099Z,0.00
2018-06-07T00:13:15.990Z,0.00
2018-06-07T00:14:16.021Z,0.00
2018-06-07T00:15:15.855Z,0.00
2018-06-07T00:16:15.889Z,0.00
2018-06-07T00:17:15.690Z,0.00
2018-06-07T00:18:15.741Z,0.00
2018-06-07T00:19:15.577Z,0.00
2018-06-07T00:20:15.579Z,0.00
2018-06-07T00:21:15.468Z,0.00
2018-06-07T00:22:15.350Z,0.00
2018-06-07T00:23:15.237Z,0.00
2018-06-07T00:24:15.287Z,0.00
2018-06-07T00:25:15.078Z,0.00
2018-06-07T00:26:15.134Z,0.00
2018-06-07T00:27:14.916Z,0.00
2018-06-07T00:28:14.880Z,0.00
2018-06-07T00:29:14.768Z,0.00
2018-06-07T00:30:14.801Z,0.00
2018-06-07T00:31:14.653Z,0.00
2018-06-07T00:32:14.601Z,0.00
2018-06-07T00:33:14.468Z,0.00
2018-06-07T00:34:14.523Z,0.00
2018-06-07T00:35:14.352Z,0.00
2018-06-07T00:36:14.355Z,0.00
2018-06-07T00:37:14.168Z,0.00
2018-06-07T00:38:14.120Z,0.00
2018-06-07T00:39:14.017Z,0.00
2018-06-07T00:40:14.040Z,0.00
2018-06-07T00:41:13.896Z,0.00
2018-06-07T00:42:13.846Z,0.00
2018-06-07T00:43:13.707Z,0.00
2018-06-07T00:44:13.659Z,0.00
2018-06-07T00:45:13.542Z,0.00
2018-06-07T00:46:13.559Z,0.00
2018-06-07T00:47:13.419Z,0.00
2018-06-07T00:49:55.828Z,0.00
2018-06-07T00:50:55.784Z,0.00
2018-06-07T00:51:55.701Z,0.00
2018-06-07T00:52:55.688Z,0.00
2018-06-07T00:53:55.520Z,0.00
2018-06-07T00:56:37.855Z,0.00
2018-06-07T00:57:39.573Z,0.00
2018-06-07T00:58:37.691Z,0.00
2018-06-07T00:59:39.767Z,0.00
2018-06-07T01:00:37.528Z,0.00
2018-06-07T01:01:40.003Z,0.00
2018-06-07T01:02:37.404Z,0.00
2018-06-07T01:03:39.385Z,0.00
2018-06-07T01:04:37.229Z,0.00
2018-06-07T01:05:39.599Z,0.00
2018-06-07T01:06:37.100Z,0.00
2018-06-07T01:07:39.867Z,0.00
2018-06-07T01:08:36.919Z,0.00
2018-06-07T01:11:22.834Z,0.00
2018-06-07T01:12:22.875Z,0.00
2018-06-07T01:13:22.680Z,0.00
2018-06-07T01:14:22.709Z,0.00
2018-06-07T01:15:22.529Z,0.00
2018-06-07T01:16:22.568Z,0.00
2018-06-07T01:17:22.391Z,0.00
2018-06-07T01:18:22.383Z,0.00
2018-06-07T01:19:22.245Z,0.00
2018-06-07T01:20:22.197Z,0.00
2018-06-07T01:21:22.078Z,0.00
2018-06-07T01:22:22.134Z,0.00
2018-06-07T01:23:21.914Z,0.00
2018-06-07T01:24:21.946Z,0.00
2018-06-07T01:25:21.771Z,0.00
2018-06-07T01:26:21.712Z,0.00
2018-06-07T01:27:21.609Z,0.00
2018-06-07T01:28:22.758Z,0.00
2018-06-07T01:29:21.472Z,0.00
2018-06-07T01:30:21.437Z,0.00
2018-06-07T01:31:21.324Z,0.00
2018-06-07T01:32:21.279Z,0.00
2018-06-07T01:33:21.168Z,0.00
2018-06-07T01:34:21.154Z,0.00
2018-06-07T01:35:20.987Z,0.00
2018-06-07T01:36:20.966Z,0.00
2018-06-07T01:37:20.830Z,0.00
2018-06-07T01:40:02.856Z,0.00
2018-06-07T01:41:02.873Z,0.00
2018-06-07T01:42:02.689Z,0.00
2018-06-07T01:43:02.705Z,0.00
2018-06-07T01:44:02.570Z,0.00
2018-06-07T01:45:02.503Z,0.00
2018-06-07T01:46:02.397Z,0.00
2018-06-07T01:47:02.407Z,0.00
2018-06-07T01:48:02.241Z,0.00
2018-06-07T01:49:02.238Z,0.00
2018-06-07T01:50:02.071Z,0.00
2018-06-07T01:51:02.120Z,0.00
2018-06-07T01:52:01.916Z,0.00
2018-06-07T01:53:01.928Z,0.00
2018-06-07T01:54:01.786Z,0.00
2018-06-07T01:55:01.746Z,0.00
2018-06-07T01:56:01.606Z,0.00
2018-06-07T01:57:01.652Z,0.00
2018-06-07T01:58:01.455Z,0.00
2018-06-07T01:59:01.493Z,0.00
2018-06-07T02:00:01.315Z,0.00
2018-06-07T02:01:01.261Z,0.00
2018-06-07T02:02:01.163Z,0.00
2018-06-07T02:03:01.167Z,0.00
2018-06-07T02:04:01.013Z,0.00
2018-06-07T02:05:00.980Z,0.00
2018-06-07T02:06:00.853Z,0.00
2018-06-07T02:07:01.864Z,0.00
2018-06-07T02:08:00.686Z,0.00
2018-06-07T02:09:00.700Z,0.00
2018-06-07T02:10:00.539Z,0.00
2018-06-07T02:11:00.549Z,0.00
2018-06-07T02:12:00.378Z,0.00
2018-06-07T02:13:00.560Z,0.00
2018-06-07T02:14:00.233Z,0.00
2018-06-07T02:15:00.229Z,0.00
2018-06-07T02:16:00.074Z,0.00
2018-06-07T02:17:00.062Z,0.00
2018-06-07T02:17:59.915Z,0.00
2018-06-07T02:18:59.981Z,0.00
2018-06-07T02:19:59.795Z,0.00
2018-06-07T02:20:59.765Z,0.00
2018-06-07T02:21:59.604Z,0.00
2018-06-07T02:22:59.558Z,0.00
2018-06-07T02:23:59.466Z,0.00
2018-06-07T02:24:59.469Z,0.00
2018-06-07T02:25:59.340Z,0.00
2018-06-07T02:26:59.281Z,0.00
2018-06-07T02:27:59.140Z,0.00
2018-06-07T02:28:59.187Z,0.00
2018-06-07T02:29:59.001Z,0.00
2018-06-07T02:30:59.002Z,0.00
2018-06-07T02:31:58.860Z,0.00
2018-06-07T02:34:40.858Z,4.00
2018-06-07T02:35:40.864Z,0.00
2018-06-07T02:36:40.706Z,0.00
2018-06-07T02:37:40.719Z,0.00
2018-06-07T02:38:40.553Z,4.00
2018-06-07T02:39:40.525Z,4.00
2018-06-07T02:40:40.416Z,4.00
2018-06-07T02:41:40.440Z,4.00
2018-06-07T02:42:40.240Z,4.00
2018-06-07T02:43:40.250Z,4.00
2018-06-07T02:44:40.094Z,4.00
2018-06-07T02:45:40.097Z,4.00
2018-06-07T02:46:39.939Z,4.00
2018-06-07T02:47:39.975Z,0.00
2018-06-07T02:48:39.771Z,0.00
2018-06-07T02:49:39.768Z,4.00
2018-06-07T02:50:39.650Z,4.00
2018-06-07T02:51:39.719Z,4.00
2018-06-07T02:52:39.464Z,8.00
2018-06-07T02:53:39.495Z,8.00
2018-06-07T02:54:39.311Z,8.00
2018-06-07T02:55:39.300Z,12.00
2018-06-07T02:56:39.174Z,12.00
2018-06-07T02:57:39.105Z,16.00
2018-06-07T02:58:39.011Z,20.00
2018-06-07T02:59:39.020Z,20.00
2018-06-07T03:00:38.854Z,20.00
2018-06-07T03:01:39.076Z,28.00
2018-06-07T03:02:38.691Z,32.00
2018-06-07T03:03:38.741Z,36.00
2018-06-07T03:04:38.653Z,44.00
2018-06-07T03:05:38.543Z,48.00
2018-06-07T03:06:38.399Z,56.00
2018-06-07T03:07:38.409Z,64.00
2018-06-07T03:08:38.225Z,72.00
2018-06-07T03:09:38.270Z,80.00
2018-06-07T03:10:38.073Z,84.00
2018-06-07T03:11:38.072Z,92.00
2018-06-07T03:12:37.946Z,104.00
2018-06-07T03:13:37.915Z,116.00
2018-06-07T03:14:37.763Z,124.00
2018-06-07T03:15:37.793Z,136.00
2018-06-07T03:16:37.616Z,152.00
2018-06-07T03:17:37.608Z,164.00
2018-06-07T03:18:37.486Z,180.00
2018-06-07T03:19:37.414Z,196.00
2018-06-07T03:20:37.317Z,208.00
2018-06-07T03:21:37.317Z,220.00
2018-06-07T03:22:37.164Z,232.00
2018-06-07T03:23:37.132Z,244.00
2018-06-07T03:24:37.020Z,264.00
2018-06-07T03:27:18.895Z,300.00
2018-06-07T03:28:18.856Z,316.00
2018-06-07T03:29:18.719Z,328.00
2018-06-07T03:30:18.792Z,340.00
2018-06-07T03:31:18.600Z,352.00
2018-06-07T03:34:00.872Z,384.00
2018-06-07T03:35:00.901Z,404.00
2018-06-07T03:36:00.716Z,420.00
2018-06-07T03:38:42.879Z,484.00
2018-06-07T03:39:42.908Z,512.00
2018-06-07T03:40:42.757Z,540.00
2018-06-07T03:41:42.686Z,564.00
2018-06-07T03:42:42.563Z,584.00
2018-06-07T03:45:24.904Z,684.00
2018-06-07T03:46:24.904Z,728.00
2018-06-07T03:47:24.733Z,772.00
2018-06-07T03:48:24.702Z,820.00
2018-06-07T03:49:24.586Z,868.00
2018-06-07T03:50:24.646Z,912.00
2018-06-07T03:51:24.419Z,956.00
2018-06-07T03:52:24.427Z,1008.00
2018-06-07T03:53:24.257Z,1060.00
2018-06-07T03:54:24.243Z,1108.00
2018-06-07T03:55:24.116Z,1168.00
2018-06-07T03:56:24.182Z,1232.00
2018-06-07T03:57:23.984Z,1300.00
2018-06-07T03:58:23.952Z,1372.00
2018-06-07T03:59:23.818Z,1448.00
2018-06-07T04:00:23.796Z,1512.00
2018-06-07T04:13:46.312Z,1884.00
2018-06-07T04:14:46.084Z,1920.00
2018-06-07T04:15:46.084Z,1952.00
2018-06-07T04:16:45.944Z,1980.00
2018-06-07T04:17:45.890Z,2008.00
2018-06-07T04:18:45.776Z,2028.00
2018-06-07T04:19:45.789Z,2044.00
2018-06-07T04:20:45.624Z,2068.00
2018-06-07T04:21:45.658Z,2080.00
2018-06-07T04:22:45.472Z,2096.00
2018-06-07T04:23:45.526Z,2116.00
2018-06-07T04:24:45.319Z,2152.00
2018-06-07T04:25:45.325Z,2192.00
2018-06-07T04:26:45.191Z,2252.00
2018-06-07T04:27:45.129Z,2316.00
2018-06-07T04:28:45.013Z,2392.00
2018-06-07T04:29:45.042Z,2476.00
2018-06-07T04:30:44.865Z,2576.00
2018-06-07T04:31:44.979Z,2708.00
2018-06-07T04:32:44.749Z,2868.00
2018-06-07T04:33:44.664Z,3020.00
2018-06-07T04:34:44.561Z,3156.00
2018-06-07T04:35:44.571Z,3252.00
2018-06-07T04:36:44.412Z,3336.00
2018-06-07T04:37:44.383Z,3404.00
2018-06-07T04:38:44.281Z,3464.00
2018-06-07T04:39:44.298Z,3492.00
2018-06-07T04:40:44.100Z,3492.00
2018-06-07T04:41:44.094Z,3484.00
2018-06-07T04:42:43.965Z,3484.00
2018-06-07T04:43:43.952Z,3500.00
2018-06-07T04:44:43.815Z,3500.00
2018-06-07T04:45:43.820Z,3484.00
2018-06-07T04:46:43.642Z,3460.00
2018-06-07T04:47:44.677Z,3436.00
2018-06-07T04:48:43.514Z,3428.00
2018-06-07T04:49:43.537Z,3420.00
2018-06-07T04:50:43.337Z,3392.00
2018-06-07T04:51:43.347Z,3360.00
2018-06-07T04:52:43.182Z,3352.00
2018-06-07T04:53:44.221Z,3380.00
2018-06-07T04:54:43.050Z,3432.00
2018-06-07T04:55:43.074Z,3504.00
2018-06-07T04:56:42.890Z,3628.00
2018-06-07T04:57:42.942Z,3700.00
2018-06-07T04:58:42.756Z,3836.00
2018-06-07T05:01:24.905Z,4256.00
2018-06-07T05:04:06.930Z,4560.00
2018-06-07T05:05:06.928Z,4612.00
2018-06-07T05:06:06.767Z,4612.00
2018-06-07T05:07:06.790Z,4628.00
2018-06-07T05:08:06.601Z,4636.00
2018-06-07T05:09:06.593Z,4652.00
2018-06-07T05:10:06.475Z,4696.00
2018-06-07T05:11:06.411Z,4764.00
2018-06-07T05:12:06.292Z,4868.00
2018-06-07T05:13:06.316Z,4948.00
2018-06-07T05:14:06.154Z,5020.00
2018-06-07T05:15:06.165Z,5068.00
2018-06-07T05:16:05.997Z,5096.00
2018-06-07T05:17:06.058Z,5100.00
2018-06-07T05:18:05.848Z,5096.00
2018-06-07T05:20:47.931Z,5084.00
2018-06-07T05:21:47.974Z,5176.00
2018-06-07T05:22:47.761Z,5244.00
2018-06-07T05:23:47.762Z,5324.00
2018-06-07T05:26:12.430Z,5744.00
2018-06-07T05:27:12.470Z,5996.00
2018-06-07T05:28:12.292Z,6252.00
2018-06-07T05:30:54.436Z,6864.00
2018-06-07T05:31:54.359Z,7016.00
2018-06-07T05:32:54.269Z,7112.00
2018-06-07T05:33:54.277Z,7144.00
2018-06-07T05:34:54.107Z,7132.00
2018-06-07T05:35:54.135Z,7096.00
2018-06-07T05:36:53.987Z,7104.00
2018-06-07T05:37:54.208Z,7124.00
2018-06-07T05:38:53.929Z,7152.00
2018-06-07T05:41:36.200Z,6964.00
2018-06-07T05:42:35.907Z,6772.00
2018-06-07T05:43:35.772Z,6588.00
2018-06-07T05:44:35.818Z,6376.00
2018-06-07T05:45:35.637Z,6148.00
2018-06-07T05:48:17.924Z,5544.00
2018-06-07T05:49:17.937Z,5476.00
2018-06-07T05:50:17.776Z,5528.00
2018-06-07T05:51:17.781Z,5648.00
2018-06-07T05:52:17.633Z,5768.00
2018-06-07T05:53:17.640Z,5920.00
2018-06-07T05:54:17.485Z,6116.00
2018-06-07T05:56:59.457Z,6224.00
2018-06-07T05:58:01.711Z,6100.00
2018-06-07T05:58:59.283Z,5980.00
2018-06-07T06:00:01.841Z,5880.00
2018-06-07T06:02:23.966Z,5676.00
2018-06-07T06:03:23.960Z,5696.00
2018-06-07T06:04:23.797Z,5748.00
2018-06-07T06:05:23.817Z,5788.00
2018-06-07T06:06:23.624Z,5808.00
2018-06-07T06:07:23.624Z,5832.00
2018-06-07T06:08:23.473Z,5896.00
2018-06-07T06:09:23.531Z,6024.00
2018-06-07T06:10:23.334Z,6160.00
2018-06-07T06:11:23.303Z,6328.00
2018-06-07T06:12:23.203Z,6624.00
2018-06-07T06:13:23.216Z,6988.00
2018-06-07T06:14:23.048Z,7476.00
2018-06-07T06:17:04.925Z,8772.00
2018-06-07T06:18:04.994Z,9152.00
2018-06-07T06:19:04.793Z,9548.00
2018-06-07T06:20:04.831Z,9860.00
2018-06-07T06:21:04.646Z,10216.00
2018-06-07T06:22:04.672Z,10520.00
2018-06-07T06:23:04.614Z,10784.00
2018-06-07T06:25:46.436Z,11376.00
2018-06-07T06:28:28.452Z,12952.00
2018-06-07T06:29:28.445Z,13336.00
2018-06-07T06:30:28.304Z,13592.00
2018-06-07T06:33:10.473Z,13968.00
2018-06-07T06:34:10.487Z,13804.00
2018-06-07T06:35:10.286Z,14560.00
2018-06-07T06:36:10.250Z,15232.00
2018-06-07T06:37:10.135Z,16128.00
2018-06-07T06:38:10.168Z,16608.00
2018-06-07T06:39:10.068Z,16352.00
2018-06-07T06:41:51.934Z,16320.00
2018-06-07T06:42:51.962Z,15328.00
2018-06-07T06:43:51.826Z,16640.00
2018-06-07T06:44:51.802Z,16512.00
2018-06-07T06:45:51.645Z,17056.00
2018-06-07T06:46:51.685Z,17312.00
2018-06-07T06:47:51.516Z,17600.00
2018-06-07T07:01:32.154Z,20576.00
2018-06-07T07:04:13.981Z,21696.00
2018-06-07T07:05:14.912Z,22304.00
2018-06-07T07:06:13.819Z,22656.00
2018-06-07T07:08:55.956Z,23136.00
2018-06-07T07:09:55.974Z,23296.00
2018-06-07T07:10:55.810Z,23936.00
2018-06-07T07:11:55.966Z,24096.00
2018-06-07T07:12:55.675Z,23872.00
2018-06-07T07:13:55.651Z,23744.00
2018-06-07T07:14:55.629Z,24128.00
2018-06-07T07:15:55.698Z,24800.00
2018-06-07T07:16:55.496Z,25408.00
2018-06-07T07:17:55.524Z,25536.00
2018-06-07T07:18:55.288Z,25760.00
2018-06-07T07:19:55.295Z,26624.00
2018-06-07T07:20:55.240Z,26976.00
2018-06-07T07:21:55.075Z,27040.00
2018-06-07T07:22:55.001Z,27776.00
2018-06-07T07:25:36.967Z,28896.00
2018-06-07T07:26:37.039Z,29824.00
2018-06-07T07:27:36.814Z,30144.00
2018-06-07T07:28:36.878Z,30368.00
2018-06-07T07:29:36.790Z,30720.00
2018-06-07T07:30:36.772Z,30784.00
2018-06-07T07:31:36.622Z,31040.00
2018-06-07T07:32:36.482Z,31328.00
2018-06-07T07:33:36.424Z,31584.00
2018-06-07T07:34:36.365Z,31744.00
2018-06-07T07:35:36.286Z,32384.00
2018-06-07T07:36:36.250Z,33120.00
2018-06-07T07:37:36.181Z,33280.00
2018-06-07T07:38:36.089Z,33248.00
2018-06-07T07:39:36.023Z,33152.00
2018-06-07T07:40:35.973Z,33088.00
2018-06-07T07:41:35.903Z,33568.00
2018-06-07T07:42:35.816Z,34496.00
2018-06-07T07:43:35.748Z,34464.00
2018-06-07T07:44:35.749Z,33504.00
2018-06-07T07:45:35.617Z,34624.00
2018-06-07T07:46:35.599Z,35104.00
2018-06-07T07:47:35.564Z,36032.00
2018-06-07T07:48:35.424Z,36512.00
2018-06-07T07:49:35.391Z,36864.00
2018-06-07T07:52:17.501Z,37728.00
2018-06-07T07:53:17.415Z,36800.00
2018-06-07T07:54:17.358Z,36480.00
2018-06-07T07:56:59.478Z,36704.00
2018-06-07T07:57:59.624Z,36992.00
2018-06-07T07:58:59.482Z,37824.00
2018-06-07T07:59:59.440Z,38496.00
2018-06-07T08:00:59.200Z,38528.00
2018-06-07T08:01:59.295Z,39072.00
2018-06-07T08:02:59.070Z,40416.00
2018-06-07T08:05:41.012Z,38816.00
2018-06-07T08:06:41.077Z,38432.00
2018-06-07T08:07:40.885Z,39264.00
2018-06-07T08:08:40.787Z,39520.00
2018-06-07T08:09:40.719Z,41024.00
2018-06-07T08:10:40.703Z,42240.00
2018-06-07T08:11:40.605Z,43968.00
2018-06-07T08:12:40.541Z,45024.00
2018-06-07T08:13:40.507Z,45184.00
2018-06-07T08:14:41.627Z,45504.00
2018-06-07T08:15:40.370Z,46432.00
2018-06-07T08:16:40.297Z,47200.00
2018-06-07T08:17:40.198Z,46464.00
2018-06-07T08:20:22.513Z,46976.00
2018-06-07T08:21:22.560Z,47008.00
2018-06-07T08:22:22.413Z,46368.00
2018-06-07T08:23:23.404Z,45184.00
2018-06-07T08:24:22.212Z,44864.00
2018-06-07T08:25:22.156Z,45376.00
2018-06-07T08:26:22.187Z,46368.00
2018-06-07T08:29:04.022Z,48864.00
2018-06-07T08:30:04.038Z,49280.00
2018-06-07T08:31:03.858Z,50240.00
2018-06-07T08:32:03.864Z,49536.00
2018-06-07T08:33:03.732Z,49440.00
2018-06-07T08:34:03.811Z,50112.00
2018-06-07T08:35:03.619Z,49728.00
2018-06-07T08:36:03.577Z,49408.00
2018-06-07T08:37:03.474Z,48672.00
2018-06-07T08:38:03.476Z,49664.00
2018-06-07T08:39:03.418Z,50368.00
2018-06-07T08:40:03.396Z,51040.00
2018-06-07T08:41:03.245Z,51200.00
2018-06-07T08:42:03.195Z,51488.00
2018-06-07T08:43:03.124Z,52480.00
2018-06-07T08:44:03.149Z,52032.00
2018-06-07T08:45:02.991Z,52224.00
2018-06-07T08:46:02.913Z,53088.00
2018-06-07T08:47:02.930Z,53152.00
2018-06-07T08:49:45.022Z,54336.00
2018-06-07T08:52:26.997Z,54848.00
2018-06-07T08:53:26.977Z,54944.00
2018-06-07T08:54:26.887Z,55456.00
2018-06-07T08:55:26.860Z,55072.00
2018-06-07T08:56:26.861Z,54656.00
2018-06-07T08:59:09.034Z,56128.00
2018-06-07T09:00:08.994Z,57216.00
2018-06-07T09:01:08.883Z,57952.00
2018-06-07T09:02:08.838Z,56736.00
2018-06-07T09:03:08.765Z,57600.00
2018-06-07T09:05:50.997Z,59712.00
2018-06-07T09:06:50.955Z,61184.00
2018-06-07T09:07:50.891Z,61888.00
2018-06-07T09:08:50.864Z,61760.00
2018-06-07T09:09:50.777Z,61504.00
2018-06-07T09:10:50.749Z,59552.00
2018-06-07T09:11:50.667Z,57312.00
2018-06-07T09:12:50.569Z,57312.00
2018-06-07T09:13:50.490Z,57920.00
2018-06-07T09:16:32.514Z,60672.00
2018-06-07T09:17:32.456Z,58656.00
2018-06-07T09:18:32.366Z,62432.00
2018-06-07T09:19:32.372Z,62816.00
2018-06-07T09:20:32.266Z,63424.00
2018-06-07T09:21:33.192Z,63872.00
2018-06-07T09:22:32.143Z,62368.00
2018-06-07T09:23:32.086Z,62688.00
2018-06-07T09:24:31.996Z,62880.00
2018-06-07T09:27:14.037Z,64192.00
2018-06-07T09:29:55.994Z,64704.00
2018-06-07T09:30:55.954Z,64480.00
2018-06-07T09:31:55.900Z,63840.00
2018-06-07T09:32:55.830Z,61792.00
2018-06-07T09:33:55.762Z,62752.00
2018-06-07T09:36:38.034Z,64128.00
2018-06-07T09:37:38.965Z,64480.00
2018-06-07T09:38:37.881Z,65152.00
2018-06-07T09:39:37.824Z,66912.00
2018-06-07T09:40:37.785Z,66464.00
2018-06-07T09:41:37.708Z,48096.00
2018-06-07T09:42:37.632Z,67392.00
2018-06-07T09:43:37.576Z,66240.00
2018-06-07T09:44:37.517Z,63776.00
2018-06-07T09:45:37.593Z,63232.00
2018-06-07T09:46:37.404Z,65408.00
2018-06-07T09:47:37.376Z,67136.00
2018-06-07T09:48:37.264Z,68320.00
2018-06-07T09:49:37.215Z,69568.00
2018-06-07T09:50:37.140Z,0.00
2018-06-07T09:51:37.108Z,62048.00
2018-06-07T09:52:37.059Z,68384.00
2018-06-07T09:53:36.975Z,68320.00
2018-06-07T09:54:36.893Z,68992.00
2018-06-07T09:55:36.842Z,68256.00
2018-06-07T09:56:36.793Z,69120.00
2018-06-07T09:57:36.714Z,67264.00
2018-06-07T09:58:36.681Z,71328.00
2018-06-07T09:59:36.596Z,73280.00
2018-06-07T10:00:36.533Z,74560.00
2018-06-07T10:01:36.470Z,74720.00
2018-06-07T10:02:36.440Z,75424.00
2018-06-07T10:03:36.351Z,75328.00
2018-06-07T10:04:36.296Z,75296.00
2018-06-07T10:05:36.238Z,73600.00
2018-06-07T10:06:36.160Z,73920.00
2018-06-07T10:07:36.182Z,72960.00
2018-06-07T10:08:36.035Z,75008.00
2018-06-07T10:09:37.004Z,72480.00
2018-06-07T10:10:35.939Z,74432.00
2018-06-07T10:13:18.042Z,78240.00
2018-06-07T10:14:17.956Z,78336.00
2018-06-07T10:15:17.910Z,72064.00
2018-06-07T10:16:17.878Z,79488.00
2018-06-07T10:17:17.772Z,57120.00
2018-06-07T10:20:00.029Z,40128.00
2018-06-07T10:21:00.973Z,33408.00
2018-06-07T10:21:59.893Z,58624.00
2018-06-07T10:24:42.028Z,79776.00
2018-06-07T10:25:43.000Z,77376.00
2018-06-07T10:26:41.893Z,76864.00
2018-06-07T10:27:41.834Z,78624.00
2018-06-07T10:28:41.791Z,79872.00
2018-06-07T10:29:41.744Z,62464.00
2018-06-07T10:30:41.671Z,51584.00
2018-06-07T10:31:41.621Z,63008.00
2018-06-07T10:32:41.532Z,75904.00
2018-06-07T10:33:41.465Z,79520.00
2018-06-07T10:34:41.413Z,69984.00
2018-06-07T10:35:42.372Z,119936.00
2018-06-07T10:36:41.293Z,83872.00
2018-06-07T10:37:41.227Z,72608.00
2018-06-07T10:38:41.153Z,87584.00
2018-06-07T10:39:41.130Z,80480.00
2018-06-07T10:40:41.084Z,81312.00
2018-06-07T10:41:40.994Z,78112.00
2018-06-07T10:42:40.930Z,69792.00
2018-06-07T10:43:40.867Z,48032.00
2018-06-07T10:44:40.796Z,70816.00
2018-06-07T10:47:23.078Z,59232.00
2018-06-07T10:50:05.033Z,60384.00
2018-06-07T10:51:05.020Z,28832.00
2018-06-07T10:52:04.940Z,34656.00
2018-06-07T10:54:47.026Z,50400.00
2018-06-07T10:55:46.973Z,94272.00
2018-06-07T10:56:46.933Z,76608.00
2018-06-07T10:57:46.864Z,81888.00
2018-06-07T10:58:46.796Z,75104.00
2018-06-07T11:01:29.052Z,73632.00
2018-06-07T11:02:29.010Z,65088.00
2018-06-07T11:03:28.901Z,76928.00
2018-06-07T11:04:28.872Z,75328.00
2018-06-07T11:05:28.802Z,73024.00
2018-06-07T11:06:28.743Z,65024.00
2018-06-07T11:07:28.686Z,60672.00
2018-06-07T11:08:28.632Z,66208.00
2018-06-07T11:09:28.558Z,42016.00
2018-06-07T11:10:28.510Z,67520.00
2018-06-07T11:11:28.437Z,29664.00
2018-06-07T11:12:28.357Z,29856.00
2018-06-07T11:13:28.302Z,33696.00
2018-06-07T11:14:28.236Z,69472.00
2018-06-07T11:15:28.198Z,82656.00
2018-06-07T11:16:28.116Z,69696.00
2018-06-07T11:17:28.082Z,65248.00
2018-06-07T11:18:27.995Z,64192.00
2018-06-07T11:19:27.919Z,55488.00
2018-06-07T11:20:29.002Z,75552.00
2018-06-07T11:21:27.798Z,79744.00
2018-06-07T11:24:10.041Z,82048.00
2018-06-07T11:25:09.980Z,78784.00
2018-06-07T11:26:09.932Z,79104.00
2018-06-07T11:27:09.866Z,78688.00
2018-06-07T11:28:09.801Z,82784.00
2018-06-07T11:29:09.742Z,85760.00
2018-06-07T11:30:09.679Z,85792.00
2018-06-07T11:32:51.594Z,80352.00
2018-06-07T11:33:51.489Z,82080.00
2018-06-07T11:34:51.424Z,80000.00
2018-06-07T11:35:52.384Z,76736.00
2018-06-07T11:36:51.292Z,75424.00
2018-06-07T11:37:51.261Z,66368.00
2018-06-07T11:38:51.181Z,76512.00
2018-06-07T11:41:33.048Z,83872.00
2018-06-07T11:42:32.996Z,82496.00
2018-06-07T11:43:32.973Z,83008.00
2018-06-07T11:46:15.067Z,79904.00
2018-06-07T11:47:14.990Z,79872.00
2018-06-07T11:48:14.934Z,80512.00
2018-06-07T11:49:14.892Z,80672.00
2018-06-07T11:50:14.811Z,80864.00
2018-06-07T11:51:14.751Z,78816.00
2018-06-07T11:52:14.702Z,41216.00
2018-06-07T11:53:14.668Z,19072.00
2018-06-07T11:54:14.577Z,18280.00
2018-06-07T11:55:14.671Z,18024.00
2018-06-07T11:56:14.459Z,18112.00
2018-06-07T11:57:14.398Z,17820.00
2018-06-07T11:58:14.343Z,17568.00
2018-06-07T11:59:14.353Z,17368.00
2018-06-07T12:00:14.196Z,17136.00
2018-06-07T12:01:14.319Z,16884.00
2018-06-07T12:02:15.125Z,16696.00
2018-06-07T12:03:15.198Z,16684.00
2018-06-07T12:04:13.935Z,16540.00
2018-06-07T12:06:56.062Z,16060.00
2018-06-07T12:07:56.174Z,15888.00
2018-06-07T12:08:55.951Z,15876.00
2018-06-07T12:09:55.985Z,15884.00
2018-06-07T12:10:55.797Z,15924.00
2018-06-07T12:13:38.091Z,16088.00
2018-06-07T12:16:20.067Z,16736.00
2018-06-07T12:17:20.080Z,17220.00
2018-06-07T12:18:19.927Z,17420.00
2018-06-07T12:19:19.939Z,17428.00
2018-06-07T12:20:19.783Z,17512.00
2018-06-07T12:21:23.683Z,17460.00
2018-06-07T12:22:19.665Z,17648.00
2018-06-07T12:25:01.582Z,18624.00
2018-06-07T12:27:43.560Z,18624.00
2018-06-07T12:28:43.642Z,18528.00
2018-06-07T12:29:43.463Z,17660.00
2018-06-07T12:30:43.423Z,17460.00
2018-06-07T12:31:43.328Z,17280.00
2018-06-07T12:32:43.335Z,16616.00
2018-06-07T12:33:43.156Z,15924.00
2018-06-07T12:34:43.180Z,15668.00
2018-06-07T12:35:43.048Z,15552.00
2018-06-07T12:38:25.073Z,15536.00
2018-06-07T12:39:25.047Z,15508.00
2018-06-07T12:40:24.989Z,15348.00
2018-06-07T12:41:24.962Z,15052.00
2018-06-07T12:42:24.796Z,15012.00
2018-06-07T12:43:24.764Z,15104.00
2018-06-07T12:44:24.687Z,15732.00
2018-06-07T12:47:06.638Z,14632.00
2018-06-07T12:48:06.580Z,14156.00
2018-06-07T12:49:06.452Z,13980.00
2018-06-07T12:50:06.640Z,13848.00
2018-06-07T12:51:06.323Z,14092.00
2018-06-07T12:52:06.302Z,14168.00
2018-06-07T12:53:06.156Z,14208.00
2018-06-07T12:54:06.206Z,13940.00
2018-06-07T12:55:06.186Z,12764.00
2018-06-07T12:56:06.011Z,11088.00
2018-06-07T12:57:05.927Z,10568.00
2018-06-07T12:59:48.223Z,10124.00
2018-06-07T13:00:48.122Z,10352.00
2018-06-07T13:01:47.948Z,11100.00
2018-06-07T13:02:48.004Z,11680.00
2018-06-07T13:03:47.822Z,12184.00
2018-06-07T13:04:47.850Z,12992.00
2018-06-07T13:05:47.869Z,13668.00
2018-06-07T13:06:47.658Z,13776.00
2018-06-07T13:07:47.570Z,13800.00
2018-06-07T13:08:47.558Z,13808.00
2018-06-07T13:09:47.390Z,13980.00
2018-06-07T13:10:47.363Z,14168.00
2018-06-07T13:11:47.267Z,13724.00
2018-06-07T13:12:48.226Z,13292.00
2018-06-07T13:13:47.113Z,13164.00
2018-06-07T13:14:47.155Z,12904.00
2018-06-07T13:15:47.005Z,12896.00
2018-06-07T13:18:29.088Z,12796.00
2018-06-07T13:21:11.104Z,13740.00
2018-06-07T13:22:11.109Z,14152.00
2018-06-07T13:23:11.016Z,14104.00
2018-06-07T13:24:11.005Z,13444.00
2018-06-07T13:25:10.821Z,13196.00
2018-06-07T13:26:10.849Z,13380.00
2018-06-07T13:27:10.679Z,12964.00
2018-06-07T13:28:10.718Z,12324.00
2018-06-07T13:29:10.523Z,11452.00
2018-06-07T13:30:10.533Z,10756.00
2018-06-07T13:31:10.410Z,10616.00
2018-06-07T13:32:10.445Z,10808.00
2018-06-07T13:33:10.257Z,11476.00
2018-06-07T13:34:10.301Z,12124.00
2018-06-07T13:35:10.119Z,12388.00
2018-06-07T13:36:10.188Z,12492.00
2018-06-07T13:37:09.982Z,12500.00
2018-06-07T13:38:09.985Z,12408.00
2018-06-07T13:39:09.836Z,12664.00
2018-06-07T13:41:52.141Z,12676.00
2018-06-07T13:42:52.089Z,12672.00
2018-06-07T13:43:51.988Z,12692.00
2018-06-07T13:44:51.994Z,12900.00
2018-06-07T13:45:51.833Z,13284.00
2018-06-07T13:46:51.802Z,13592.00
2018-06-07T13:47:51.683Z,13684.00
2018-06-07T13:48:51.738Z,14032.00
2018-06-07T13:49:51.535Z,14188.00
2018-06-07T13:50:51.565Z,13496.00
2018-06-07T13:51:51.432Z,13200.00
2018-06-07T13:52:51.439Z,12716.00
2018-06-07T13:53:51.292Z,12464.00
2018-06-07T13:54:51.242Z,12320.00
2018-06-07T13:55:51.156Z,12288.00
2018-06-07T13:56:51.180Z,12228.00
2018-06-07T13:57:51.015Z,12168.00
2018-06-07T14:00:33.132Z,11596.00
2018-06-07T14:01:33.054Z,11612.00
2018-06-07T14:02:32.975Z,11516.00
2018-06-07T14:03:32.989Z,11740.00
2018-06-07T14:04:32.828Z,11460.00
2018-06-07T14:05:32.878Z,10836.00
2018-06-07T14:06:32.694Z,10228.00
2018-06-07T14:07:32.734Z,9728.00
2018-06-07T14:08:32.573Z,9652.00
2018-06-07T14:09:32.602Z,9528.00
2018-06-07T14:10:32.411Z,9320.00
2018-06-07T14:13:14.622Z,9492.00
2018-06-07T14:14:14.611Z,9668.00
2018-06-07T14:15:14.464Z,9836.00
2018-06-07T14:17:56.630Z,10208.00
2018-06-07T14:18:56.636Z,10364.00
2018-06-07T14:19:56.478Z,10516.00
2018-06-07T14:22:38.632Z,10220.00
2018-06-07T14:25:20.612Z,10052.00
2018-06-07T14:26:20.631Z,9840.00
2018-06-07T14:27:20.530Z,9788.00
2018-06-07T14:28:20.447Z,9772.00
2018-06-07T14:29:20.332Z,9700.00
2018-06-07T14:30:20.402Z,9584.00
2018-06-07T14:31:20.215Z,9544.00
2018-06-07T14:32:20.164Z,9428.00
2018-06-07T14:33:20.059Z,9360.00
2018-06-07T14:34:20.113Z,9332.00
2018-06-07T14:35:19.945Z,9376.00
2018-06-07T14:36:19.878Z,9308.00